Time;durP1;ratioP1;P1;durP2;ratioP2;P2;SDS_P1;SDS_P2;PMS_P1;PMS_P2;Temp;Humidity;BMP_temperature;BMP_pressure;BME280_temperature;BME280_humidity;BME280_pressure;Samples;Min_cycle;Max_cycle;Signal;HPM_P1;HPM_P2
2021/11/12 00:12:34;;;;;;;;;;;;;;;3.94;56.77;100827.06;1695486;85;20162;-75
2021/11/12 00:14:25;;;;;;;;;;;;;;;3.94;56.94;100826.56;1687537;84;20203;-76
2021/11/12 00:16:54;;;;;;;;;;;;;;;3.96;57.07;100811.51;1695615;85;20218;-78
2021/11/12 00:19:23;;;;;;;;;;;;;;;3.97;57.15;100803.73;1695602;85;20237;-76
2021/11/12 00:21:53;;;;;;;;;;;;;;;3.95;57.08;100810.66;1695556;85;20178;-73
2021/11/12 00:24:21;;;;;;;;;;;;;;;3.96;57.14;100810.16;1695582;85;20247;-75
2021/11/12 00:26:50;;;;;;;;;;;;;;;3.94;57.21;100806.23;1695702;85;20162;-75
2021/11/12 00:29:19;;;;;;;;;;;;;;;3.95;57.23;100809.80;1695779;85;20568;-74
2021/11/12 00:37:14;;;;;;;;;;;;;;;3.94;57.35;100797.25;1681407;84;20268;-77
2021/11/12 00:39:44;;;;;;;;;;;;;;;3.94;57.39;100801.31;1695464;85;20518;-77
2021/11/12 00:42:15;;;;;;;;;;;;;;;3.88;57.42;100797.30;1695775;84;20459;-75
2021/11/12 00:44:49;;;;;;;;;;;;;;;3.87;57.50;100793.37;1695867;84;20158;-77
2021/11/12 00:47:39;;;;;;;;;;;;;;;3.87;57.61;100787.45;1694769;84;20201;-76
2021/11/12 00:50:10;;;;;;;;;;;;;;;3.88;57.82;100786.45;1693718;85;20261;-74
2021/11/12 00:55:22;;;;;;;;;;;;;;;3.87;57.98;100780.67;1695802;85;20154;-75
2021/11/12 00:57:52;;;;;;;;;;;;;;;3.82;57.96;100773.48;1695574;84;20286;-77
2021/11/12 01:00:21;;;;;;;;;;;;;;;3.76;58.21;100783.55;1695599;85;20174;-78
2021/11/12 01:02:49;;;;;;;;;;;;;;;3.72;58.31;100772.64;1695386;84;20162;-78
2021/11/12 01:05:18;;;;;;;;;;;;;;;3.70;58.48;100772.78;1695624;85;20213;-76
2021/11/12 01:07:46;;;;;;;;;;;;;;;3.69;58.54;100770.22;1695765;84;20220;-76
2021/11/12 01:10:15;;;;;;;;;;;;;;;3.67;58.54;100758.67;1695648;84;20500;-77
2021/11/12 01:12:43;;;;;;;;;;;;;;;3.66;58.79;100756.96;1695678;85;20249;-75
2021/11/12 01:15:15;;;;;;;;;;;;;;;3.65;58.77;100755.25;1695714;85;20190;-79
2021/11/12 01:17:43;;;;;;;;;;;;;;;3.64;58.85;100750.83;1695746;84;20206;-76
2021/11/12 01:20:14;;;;;;;;;;;;;;;3.61;58.94;100752.47;1696141;85;20534;-78
2021/11/12 01:22:43;;;;;;;;;;;;;;;3.59;58.98;100759.39;1695700;84;20266;-78
2021/11/12 01:25:14;;;;;;;;;;;;;;;3.55;59.07;100750.34;1695672;85;20468;-76
2021/11/12 01:27:44;;;;;;;;;;;;;;;3.50;59.49;100746.20;1695681;85;20213;-76
2021/11/12 01:30:13;;;;;;;;;;;;;;;3.49;59.64;100735.02;1695731;84;20472;-77
2021/11/12 01:32:42;;;;;;;;;;;;;;;3.52;59.76;100745.21;1695623;85;20230;-76
2021/11/12 01:35:11;;;;;;;;;;;;;;;3.52;59.72;100730.31;1695415;84;20230;-76
2021/11/12 01:37:42;;;;;;;;;;;;;;;3.52;59.74;100732.52;1695664;85;20239;-75
2021/11/12 01:40:19;;;;;;;;;;;;;;;3.48;59.91;100733.31;1695907;85;20558;-76
2021/11/12 01:43:16;;;;;;;;;;;;;;;3.45;60.01;100729.53;1695129;85;20221;-76
2021/11/12 01:48:43;;;;;;;;;;;;;;;3.42;60.39;100739.80;1683113;84;20182;-76
2021/11/12 01:53:42;;;;;;;;;;;;;;;3.44;60.74;100735.95;1695791;85;20206;-76
2021/11/12 01:58:54;;;;;;;;;;;;;;;3.48;60.96;100731.95;1695468;84;20234;-75
2021/11/12 02:01:22;;;;;;;;;;;;;;;3.49;60.92;100728.75;1696098;85;20222;-75
2021/11/12 02:03:51;;;;;;;;;;;;;;;3.52;61.29;100723.54;1697155;83;20496;-74
2021/11/12 02:06:21;;;;;;;;;;;;;;;3.52;61.29;100730.31;1698821;83;20193;-74
2021/11/12 02:08:50;;;;;;;;;;;;;;;3.56;61.28;100726.31;1698914;83;20185;-76
2021/11/12 02:11:20;;;;;;;;;;;;;;;3.57;61.25;100723.96;1699213;84;20187;-73
2021/11/12 02:13:49;;;;;;;;;;;;;;;3.59;61.19;100727.38;1698889;84;20530;-75
2021/11/12 02:16:28;;;;;;;;;;;;;;;3.58;61.17;100717.05;1698882;84;20213;-76
2021/11/12 02:18:54;;;;;;;;;;;;;;;3.58;61.25;100726.52;1699123;83;20150;-74
2021/11/12 02:21:29;;;;;;;;;;;;;;;3.58;61.37;100722.96;1699001;84;20508;-75
2021/11/12 02:26:27;;;;;;;;;;;;;;;3.57;61.59;100719.89;1699046;83;20193;-75
2021/11/12 02:28:57;;;;;;;;;;;;;;;3.56;61.75;100719.54;1699253;84;20162;-75
2021/11/12 02:31:27;;;;;;;;;;;;;;;3.55;61.80;100717.83;1699022;84;20209;-77
2021/11/12 02:33:56;;;;;;;;;;;;;;;3.60;61.77;100720.96;1698879;84;20475;-76
2021/11/12 02:36:25;;;;;;;;;;;;;;;3.68;61.77;100715.67;1698955;84;20158;-76
2021/11/12 02:38:54;;;;;;;;;;;;;;;3.68;61.71;100719.73;1698998;84;20146;-74
2021/11/12 02:41:24;;;;;;;;;;;;;;;3.66;61.77;100711.75;1699035;84;20154;-75
2021/11/12 02:43:53;;;;;;;;;;;;;;;3.60;61.92;100710.98;1698983;84;20310;-77
2021/11/12 02:46:25;;;;;;;;;;;;;;;3.56;62.11;100709.56;1698859;84;20170;-77
2021/11/12 02:48:54;;;;;;;;;;;;;;;3.58;62.08;100711.63;1698911;84;20178;-77
2021/11/12 02:51:27;;;;;;;;;;;;;;;3.57;62.12;100713.12;1698976;84;20233;-77
2021/11/12 02:53:57;;;;;;;;;;;;;;;3.58;62.17;100707.56;1699022;84;20224;-75
2021/11/12 02:56:32;;;;;;;;;;;;;;;3.59;62.09;100708.41;1698797;83;20205;-76
2021/11/12 02:59:04;;;;;;;;;;;;;;;3.59;62.24;100711.13;1699051;84;20166;-75
2021/11/12 03:01:34;;;;;;;;;;;;;;;3.61;62.20;100715.89;1698994;84;20218;-75
2021/11/12 03:04:03;;;;;;;;;;;;;;;3.57;62.17;100706.35;1693584;84;20467;-75
2021/11/12 03:06:32;;;;;;;;;;;;;;;3.52;62.30;100705.93;1684482;85;20173;-76
2021/11/12 03:09:05;;;;;;;;;;;;;;;3.47;62.44;100709.08;1684742;84;20163;-75
2021/11/12 03:11:35;;;;;;;;;;;;;;;3.38;62.98;100708.09;1684735;84;20586;-76
2021/11/12 03:14:04;;;;;;;;;;;;;;;3.34;63.09;100703.95;1691865;84;20834;-76
2021/11/12 03:16:35;;;;;;;;;;;;;;;3.35;63.11;100713.80;1684634;84;20176;-74
2021/11/12 03:19:05;;;;;;;;;;;;;;;3.40;63.13;100706.09;1684566;85;20156;-74
2021/11/12 03:21:34;;;;;;;;;;;;;;;3.38;63.21;100702.67;1669048;85;20221;-73
2021/11/12 03:24:08;;;;;;;;;;;;;;;3.38;63.33;100702.67;1684655;84;20470;-76
2021/11/12 03:26:50;;;;;;;;;;;;;;;3.38;63.37;100702.67;1684392;84;20157;-76
2021/11/12 03:59:59;;;;;;;;;;;;;;;3.14;64.25;100696.81;1684521;85;20161;-76
2021/11/12 04:02:49;;;;;;;;;;;;;;;3.16;64.32;100694.81;1684807;84;20439;-76
2021/11/12 04:05:35;;;;;;;;;;;;;;;3.18;64.34;100690.11;1691830;84;20158;-76
2021/11/12 05:13:53;;;;;;;;;;;;;;;2.79;66.17;100719.01;1690415;85;20558;-75
2021/11/12 05:25:51;;;;;;;;;;;;;;;2.74;66.42;100715.86;1678745;85;20527;-77
2021/11/12 05:44:16;;;;;;;;;;;;;;;2.73;68.98;100735.80;1690595;85;20512;-76
2021/11/12 05:46:59;;;;;;;;;;;;;;;2.73;69.14;100735.30;1690590;84;20202;-78
2021/11/12 05:52:20;;;;;;;;;;;;;;;2.81;69.73;100735.95;1690341;84;20313;-77
2021/11/12 05:57:33;;;;;;;;;;;;;;;2.86;69.97;100733.19;1690343;84;20190;-76
2021/11/12 06:00:10;;;;;;;;;;;;;;;2.92;70.04;100729.06;1690512;85;20225;-78
2021/11/12 06:02:39;;;;;;;;;;;;;;;3.00;69.94;100734.63;1690795;84;20516;-76
2021/11/12 06:05:08;;;;;;;;;;;;;;;3.05;69.75;100733.70;1692644;84;20468;-75
2021/11/12 06:07:37;;;;;;;;;;;;;;;3.06;69.53;100736.77;1695576;85;20178;-77
2021/11/12 06:10:06;;;;;;;;;;;;;;;3.09;69.58;100735.63;1695675;84;20158;-77
2021/11/12 06:12:35;;;;;;;;;;;;;;;3.09;69.73;100728.87;1696066;85;20150;-76
2021/11/12 06:15:04;;;;;;;;;;;;;;;3.13;69.96;100733.00;1695753;84;20222;-77
2021/11/12 06:17:33;;;;;;;;;;;;;;;3.18;70.22;100728.87;1695424;85;20182;-77
2021/11/12 06:20:05;;;;;;;;;;;;;;;3.27;70.37;100735.31;1695493;85;20197;-77
2021/11/12 06:22:35;;;;;;;;;;;;;;;3.34;70.52;100728.33;1695482;85;20158;-76
2021/11/12 06:25:04;;;;;;;;;;;;;;;3.40;70.54;100733.67;1695518;85;20261;-76
2021/11/12 06:27:34;;;;;;;;;;;;;;;3.46;70.63;100728.53;1695573;84;20239;-78
2021/11/12 06:30:05;;;;;;;;;;;;;;;3.56;70.68;100739.86;1695507;85;20198;-78
2021/11/12 06:32:33;;;;;;;;;;;;;;;3.64;70.64;100738.64;1695555;84;20261;-79
2021/11/12 06:35:03;;;;;;;;;;;;;;;3.68;70.64;100732.78;1695533;84;20204;-77
2021/11/12 06:37:31;;;;;;;;;;;;;;;3.72;70.73;100731.48;1695771;84;20158;-78
2021/11/12 06:40:01;;;;;;;;;;;;;;;3.78;70.84;100732.77;1695959;84;20498;-75
2021/11/12 06:42:35;;;;;;;;;;;;;;;3.85;71.06;100733.89;1695624;84;20257;-76
2021/11/12 06:50:23;;;;;;;;;;;;;;;4.02;71.16;100730.95;1695591;85;20261;-78
2021/11/12 06:52:51;;;;;;;;;;;;;;;4.08;71.13;100728.50;1695830;84;20494;-77
2021/11/12 06:55:20;;;;;;;;;;;;;;;4.15;71.01;100730.12;1695680;85;20534;-76
2021/11/12 06:57:50;;;;;;;;;;;;;;;4.19;70.96;100725.25;1695497;85;20166;-79
2021/11/12 07:00:19;;;;;;;;;;;;;;;4.25;70.97;100720.59;1695738;84;20169;-79
2021/11/12 07:02:48;;;;;;;;;;;;;;;4.30;71.11;100725.91;1695523;85;20158;-78
2021/11/12 07:05:18;;;;;;;;;;;;;;;4.34;71.33;100721.05;1691853;84;20204;-76
2021/11/12 07:07:48;;;;;;;;;;;;;;;4.39;71.33;100720.95;1684237;84;20541;-79
2021/11/12 07:10:17;;;;;;;;;;;;;;;4.42;71.35;100719.29;1684900;85;20221;-76
2021/11/12 07:12:46;;;;;;;;;;;;;;;4.48;71.34;100712.41;1684502;84;20157;-79
2021/11/12 07:15:15;;;;;;;;;;;;;;;4.53;71.29;100716.02;1684630;84;20277;-77
2021/11/12 07:17:44;;;;;;;;;;;;;;;4.58;71.30;100711.89;1684560;85;20240;-77
2021/11/12 07:20:14;;;;;;;;;;;;;;;4.64;71.19;100712.64;1684813;85;20254;-77
2021/11/12 07:22:44;;;;;;;;;;;;;;;4.73;71.25;100699.50;1684572;85;20248;-79
2021/11/12 07:25:12;;;;;;;;;;;;;;;4.91;71.54;100706.81;1684657;84;20195;-77
2021/11/12 07:27:41;;;;;;;;;;;;;;;5.22;71.88;100708.68;1684490;85;20197;-78
2021/11/12 07:30:14;;;;;;;;;;;;;;;5.56;71.70;100715.09;1684739;84;20204;-78
2021/11/12 07:32:46;;;;;;;;;;;;;;;5.94;71.10;100717.98;1684520;85;20182;-77
2021/11/12 07:35:18;;;;;;;;;;;;;;;6.30;70.24;100714.61;1684371;85;20169;-76
2021/11/12 07:37:46;;;;;;;;;;;;;;;6.65;69.12;100715.47;1684520;84;20463;-79
2021/11/12 07:40:23;;;;;;;;;;;;;;;6.99;68.17;100714.04;1684547;84;20250;-76
2021/11/12 07:43:05;;;;;;;;;;;;;;;7.25;66.41;100712.58;1684770;84;20177;-79
2021/11/12 07:45:41;;;;;;;;;;;;;;;7.40;65.73;100707.31;1685342;84;20595;-78
2021/11/12 07:48:10;;;;;;;;;;;;;;;7.61;64.83;100713.95;1684373;84;20240;-80
2021/11/12 07:50:38;;;;;;;;;;;;;;;7.89;63.66;100713.62;1685069;85;20161;-78
2021/11/12 07:53:07;;;;;;;;;;;;;;;8.08;62.21;100710.52;1684522;84;20263;-78
2021/11/12 07:55:36;;;;;;;;;;;;;;;8.18;61.52;100711.69;1684701;84;20184;-79
2021/11/12 07:58:05;;;;;;;;;;;;;;;8.17;61.17;100712.20;1665164;85;20195;-79
2021/11/12 08:00:35;;;;;;;;;;;;;;;8.24;61.30;100712.34;1665300;86;20191;-78
2021/11/12 08:03:04;;;;;;;;;;;;;;;8.35;61.11;100708.42;1665224;86;20239;-79
2021/11/12 08:05:38;;;;;;;;;;;;;;;8.42;60.55;100710.27;1665525;86;20571;-79
2021/11/12 08:08:07;;;;;;;;;;;;;;;8.39;60.11;100716.09;1666273;86;20228;-79
2021/11/12 08:10:53;;;;;;;;;;;;;;;8.33;60.06;100714.55;1588057;90;20204;-79
2021/11/12 08:16:18;;;;;;;;;;;;;;;8.24;60.39;100718.66;1543189;92;20260;-79
2021/11/12 08:21:15;;;;;;;;;;;;;;;8.15;60.20;100719.71;1604739;89;20556;-77
2021/11/12 08:23:51;;;;;;;;;;;;;;;8.04;60.43;100701.48;1556770;91;20559;-78
2021/11/12 08:26:20;;;;;;;;;;;;;;;7.89;60.79;100709.02;1557141;92;20157;-78
2021/11/12 08:29:10;;;;;;;;;;;;;;;7.77;61.21;100713.09;1596815;88;20520;-76
2021/11/12 08:34:06;;;;;;;;;;;;;;;7.48;62.14;100707.31;1663711;86;20287;-79
2021/11/12 08:37:21;;;;;;;;;;;;;;;7.40;62.52;100714.13;1663628;86;20180;-79
2021/11/12 08:39:12;;;;;;;;;;;;;;;7.40;62.91;100715.48;1650263;86;20218;-78
2021/11/12 08:44:21;;;;;;;;;;;;;;;7.47;62.91;100708.33;1663817;86;20216;-78
2021/11/12 08:49:23;;;;;;;;;;;;;;;7.54;62.78;100703.39;1664093;86;20582;-78
2021/11/12 08:51:49;;;;;;;;;;;;;;;7.54;62.75;100705.27;1664001;86;20553;-77
2021/11/12 08:54:23;;;;;;;;;;;;;;;7.52;62.77;100710.04;1664065;86;20483;-78
2021/11/12 08:56:49;;;;;;;;;;;;;;;7.50;62.88;100713.45;1663825;86;20201;-77
2021/11/12 08:59:20;;;;;;;;;;;;;;;7.47;62.94;100705.61;1683859;85;20558;-65
2021/11/12 09:01:51;;;;;;;;;;;;;;;7.48;63.25;100699.13;1651772;86;20195;-66
2021/11/12 09:04:20;;;;;;;;;;;;;;;7.49;63.14;100704.92;1616151;88;20486;-67
2021/11/12 09:06:49;;;;;;;;;;;;;;;7.52;63.15;100697.77;1634041;88;20538;-66
2021/11/12 09:09:18;;;;;;;;;;;;;;;7.54;63.05;100689.76;1648366;86;20304;-67
2021/11/12 09:11:48;;;;;;;;;;;;;;;7.57;63.02;100694.02;1659742;86;20180;-66
2021/11/12 09:14:21;;;;;;;;;;;;;;;7.58;63.05;100691.63;1659939;86;20363;-66
2021/11/12 09:16:48;;;;;;;;;;;;;;;7.62;62.78;100692.98;1655398;86;20159;-65
2021/11/12 09:19:18;;;;;;;;;;;;;;;7.67;62.83;100699.30;1633119;88;20437;-64
2021/11/12 09:21:47;;;;;;;;;;;;;;;7.74;62.72;100694.34;1635013;88;20203;-65
2021/11/12 09:24:15;;;;;;;;;;;;;;;7.84;62.53;100693.68;1637632;85;20513;-64
2021/11/12 09:26:44;;;;;;;;;;;;;;;7.93;62.37;100695.37;1633087;86;20510;-66
2021/11/12 09:29:13;;;;;;;;;;;;;;;8.04;62.12;100698.75;1637686;88;20198;-66
2021/11/12 09:31:45;;;;;;;;;;;;;;;8.08;61.79;100696.02;1637786;86;20200;-67
2021/11/12 09:34:14;;;;;;;;;;;;;;;8.11;61.91;100697.88;1651373;86;20192;-66
2021/11/12 09:36:43;;;;;;;;;;;;;;;8.12;62.22;100683.22;1659344;85;20237;-65
2021/11/12 09:39:12;;;;;;;;;;;;;;;8.13;62.50;100690.89;1646173;85;20227;-65
2021/11/12 09:41:43;;;;;;;;;;;;;;;8.09;62.68;100697.20;1655008;85;20208;-65
2021/11/12 09:44:13;;;;;;;;;;;;;;;8.11;62.76;100695.67;1661432;85;20205;-66
2021/11/12 09:46:41;;;;;;;;;;;;;;;8.14;62.94;100683.03;1661916;86;20161;-66
2021/11/12 09:49:12;;;;;;;;;;;;;;;8.18;62.93;100668.02;1662140;86;20223;-65
2021/11/12 09:51:41;;;;;;;;;;;;;;;8.23;62.89;100675.16;1662236;86;20164;-65
2021/11/12 09:54:11;;;;;;;;;;;;;;;8.27;63.01;100682.83;1662229;86;20192;-65
2021/11/12 09:56:40;;;;;;;;;;;;;;;8.31;63.21;100691.52;1662087;85;20200;-64
2021/11/12 09:59:14;;;;;;;;;;;;;;;8.38;63.21;100688.95;1662065;86;20185;-64
2021/11/12 10:01:42;;;;;;;;;;;;;;;8.43;63.05;100687.91;1662200;85;20524;-67
2021/11/12 10:04:11;;;;;;;;;;;;;;;8.45;62.94;100683.12;1662063;86;20169;-64
2021/11/12 10:06:41;;;;;;;;;;;;;;;8.49;62.87;100681.27;1656691;86;20223;-64
2021/11/12 10:09:18;;;;;;;;;;;;;;;8.53;62.89;100686.70;1650295;87;20199;-65
2021/11/12 10:11:57;;;;;;;;;;;;;;;8.57;63.01;100683.95;1632970;87;20194;-65
2021/11/12 10:14:52;;;;;;;;;;;;;;;8.61;63.22;100670.80;1629161;86;20166;-65
2021/11/12 10:17:21;;;;;;;;;;;;;;;8.61;63.30;100674.05;1625124;88;20585;-67
2021/11/12 10:19:53;;;;;;;;;;;;;;;8.62;63.47;100668.91;1625401;88;20238;-67
2021/11/12 10:22:24;;;;;;;;;;;;;;;8.62;63.76;100675.74;1625088;88;20258;-63
2021/11/12 10:24:54;;;;;;;;;;;;;;;8.66;63.78;100679.82;1625337;88;20235;-67
2021/11/12 10:27:25;;;;;;;;;;;;;;;8.72;63.88;100677.73;1625209;88;20271;-66
2021/11/12 10:29:56;;;;;;;;;;;;;;;8.77;63.83;100672.59;1625160;88;20258;-64
2021/11/12 10:32:27;;;;;;;;;;;;;;;8.81;63.98;100676.66;1624972;88;20299;-66
2021/11/12 10:35:02;;;;;;;;;;;;;;;8.84;64.07;100677.16;1623160;88;20247;-64
2021/11/12 10:37:33;;;;;;;;;;;;;;;8.93;64.22;100678.47;1597971;90;20473;-65
2021/11/12 10:40:05;;;;;;;;;;;;;;;9.01;64.37;100676.54;1619296;88;20450;-64
2021/11/12 10:42:36;;;;;;;;;;;;;;;9.09;64.49;100667.43;1624711;88;20228;-65
2021/11/12 10:45:08;;;;;;;;;;;;;;;9.14;64.35;100673.23;1608081;89;20223;-65
2021/11/12 10:47:46;;;;;;;;;;;;;;;9.16;64.27;100673.91;1624859;88;20222;-66
2021/11/12 10:50:16;;;;;;;;;;;;;;;9.17;64.32;100675.09;1614785;87;20216;-66
2021/11/12 10:52:45;;;;;;;;;;;;;;;9.18;64.51;100672.69;1624759;88;20205;-66
2021/11/12 10:55:17;;;;;;;;;;;;;;;9.20;64.70;100671.14;1608398;89;20172;-65
2021/11/12 10:57:54;;;;;;;;;;;;;;;9.22;64.75;100670.44;1624588;88;20227;-65
2021/11/12 11:00:33;;;;;;;;;;;;;;;9.26;64.68;100659.98;1624725;88;20209;-66
2021/11/12 11:03:19;;;;;;;;;;;;;;;9.28;64.63;100659.29;1636355;86;20540;-66
2021/11/12 11:06:25;;;;;;;;;;;;;;;9.33;64.69;100660.95;1538151;91;20210;-66
2021/11/12 11:09:33;;;;;;;;;;;;;;;9.36;64.92;100666.91;1465386;98;20248;-66
2021/11/12 11:12:48;;;;;;;;;;;;;;;9.40;65.28;100667.39;1447800;98;20190;-66
2021/11/12 11:16:02;;;;;;;;;;;;;;;9.41;65.32;100669.09;1450029;97;20249;-66
2021/11/12 11:19:29;;;;;;;;;;;;;;;9.44;65.77;100672.83;1463354;98;20178;-66
2021/11/12 11:25:23;;;;;;;;;;;;;;;9.44;66.39;100681.03;1512568;94;20502;-72
2021/11/12 11:27:59;;;;;;;;;;;;;;;9.40;66.50;100674.23;1515979;94;20192;-70
2021/11/12 11:30:28;;;;;;;;;;;;;;;9.39;66.70;100676.63;1553540;90;20348;-71
2021/11/12 11:32:56;;;;;;;;;;;;;;;9.39;66.73;100678.00;1600483;88;20335;-71
2021/11/12 11:35:26;;;;;;;;;;;;;;;9.42;66.80;100684.47;1666321;86;20180;-73
2021/11/12 11:37:55;;;;;;;;;;;;;;;9.42;66.92;100679.00;1654211;87;20228;-71
2021/11/12 11:40:24;;;;;;;;;;;;;;;9.40;66.99;100676.97;1654812;86;20165;-72
2021/11/12 11:42:53;;;;;;;;;;;;;;;9.39;67.35;100684.84;1683261;85;20206;-72
2021/11/12 11:45:22;;;;;;;;;;;;;;;9.37;67.33;100678.70;1682946;85;20162;-72
2021/11/12 11:47:51;;;;;;;;;;;;;;;9.38;67.38;100684.50;1683395;85;20227;-72
2021/11/12 11:50:24;;;;;;;;;;;;;;;9.38;67.64;100683.98;1659968;85;20202;-72
2021/11/12 11:52:52;;;;;;;;;;;;;;;9.37;67.79;100680.06;1683163;85;20190;-72
2021/11/12 11:55:33;;;;;;;;;;;;;;;9.35;67.92;100683.50;1682832;85;20223;-71
2021/11/12 11:58:31;;;;;;;;;;;;;;;9.33;68.15;100684.20;1678716;85;20225;-72
2021/11/12 12:01:12;;;;;;;;;;;;;;;9.32;68.33;100680.62;1666736;85;20611;-71
2021/11/12 12:03:40;;;;;;;;;;;;;;;9.30;68.44;100685.41;1660437;86;20148;-70
2021/11/12 12:06:11;;;;;;;;;;;;;;;9.32;68.54;100681.13;1666925;86;20184;-71
2021/11/12 12:09:05;;;;;;;;;;;;;;;9.36;68.57;100689.30;1666863;86;20240;-71
2021/11/12 12:11:38;;;;;;;;;;;;;;;9.39;68.43;100689.79;1666351;86;20215;-72
2021/11/12 12:14:37;;;;;;;;;;;;;;;9.44;68.28;100692.83;1666857;86;20256;-71
2021/11/12 12:17:14;;;;;;;;;;;;;;;9.45;68.21;100690.94;1663180;86;20212;-72
2021/11/12 12:19:56;;;;;;;;;;;;;;;9.45;68.11;100702.73;1663229;86;20157;-72
2021/11/12 12:34:57;;;;;;;;;;;;;;;9.40;68.08;100700.21;1666618;85;20224;-73
2021/11/12 12:37:58;;;;;;;;;;;;;;;9.44;67.89;100692.83;1675303;85;20182;-71
2021/11/12 13:23:52;;;;;;;;;;;;;;;9.08;68.57;100728.08;1682463;84;20167;-70
2021/11/12 13:26:05;;;;;;;;;;;;;;;9.03;68.73;100730.50;1664030;86;20228;-70
2021/11/12 13:28:40;;;;;;;;;;;;;;;9.05;68.79;100733.91;1663837;85;20566;-70
2021/11/12 13:31:12;;;;;;;;;;;;;;;9.03;68.73;100741.44;1666527;86;20518;-71
2021/11/12 13:33:49;;;;;;;;;;;;;;;9.01;68.67;100740.77;1686719;85;20197;-70
2021/11/12 13:36:29;;;;;;;;;;;;;;;8.99;68.64;100745.56;1666638;86;20197;-70
2021/11/12 13:39:19;;;;;;;;;;;;;;;8.96;68.62;100743.19;1687291;85;20174;-71
2021/11/12 13:41:55;;;;;;;;;;;;;;;8.93;68.62;100740.81;1666766;86;20534;-70
2021/11/12 13:44:25;;;;;;;;;;;;;;;8.88;68.63;100735.87;1659318;86;20220;-71
2021/11/12 13:47:05;;;;;;;;;;;;;;;8.85;68.65;100742.22;1659292;86;20168;-70
2021/11/12 13:49:38;;;;;;;;;;;;;;;8.79;68.78;100741.56;1666700;86;20320;-71
2021/11/12 13:52:27;;;;;;;;;;;;;;;8.74;68.84;100746.20;1658799;86;20221;-70
2021/11/12 13:55:13;;;;;;;;;;;;;;;8.72;68.94;100754.23;1666706;86;20209;-70
2021/11/12 13:57:55;;;;;;;;;;;;;;;8.70;69.09;100760.39;1658855;86;20458;-68
2021/11/12 14:00:26;;;;;;;;;;;;;;;8.67;69.12;100760.73;1658554;86;20230;-68
2021/11/12 14:03:17;;;;;;;;;;;;;;;8.60;69.18;100764.69;1666691;86;20197;-69
2021/11/12 14:05:58;;;;;;;;;;;;;;;8.56;69.36;100760.09;1657973;86;20584;-70
2021/11/12 14:08:34;;;;;;;;;;;;;;;8.54;69.46;100771.70;1688478;85;20166;-71
2021/11/12 14:11:03;;;;;;;;;;;;;;;8.52;69.46;100768.81;1693607;84;20182;-68
2021/11/12 14:13:39;;;;;;;;;;;;;;;8.46;69.44;100772.25;1709904;83;20531;-69
2021/11/12 14:16:22;;;;;;;;;;;;;;;8.41;69.47;100774.10;1698109;83;20266;-70
2021/11/12 14:21:57;;;;;;;;;;;;;;;8.37;69.54;100774.11;1693563;83;20208;-70
2021/11/12 14:24:35;;;;;;;;;;;;;;;8.39;69.50;100773.42;1693143;84;20146;-69
2021/11/12 14:27:10;;;;;;;;;;;;;;;8.35;69.54;100781.62;1693712;83;20568;-69
2021/11/12 14:35:23;;;;;;;;;;;;;;;8.26;69.75;100794.92;1694698;85;20178;-68
2021/11/12 14:40:36;;;;;;;;;;;;;;;8.16;69.93;100799.20;1722939;82;20156;-69
2021/11/12 14:43:06;;;;;;;;;;;;;;;8.14;70.01;100797.67;1720929;82;20630;-69
2021/11/12 14:45:40;;;;;;;;;;;;;;;8.16;70.08;100802.44;1722034;82;20549;-71
2021/11/12 14:48:24;;;;;;;;;;;;;;;8.19;70.26;100804.31;1723484;82;20195;-70
2021/11/12 14:51:21;;;;;;;;;;;;;;;8.16;70.26;100814.73;1722071;82;20207;-71
2021/11/12 14:53:29;;;;;;;;;;;;;;;8.15;70.26;100814.38;1701516;83;20480;-69
2021/11/12 14:56:15;;;;;;;;;;;;;;;8.13;70.35;100817.80;1694751;83;20230;-72
2021/11/12 14:58:45;;;;;;;;;;;;;;;8.13;70.49;100828.72;1694610;85;20236;-68
2021/11/12 15:01:19;;;;;;;;;;;;;;;8.13;70.61;100831.45;1694561;83;20162;-68
2021/11/12 15:03:51;;;;;;;;;;;;;;;8.11;70.66;100825.30;1694984;85;20153;-70
2021/11/12 15:06:23;;;;;;;;;;;;;;;8.11;70.77;100834.86;1694723;83;20540;-69
2021/11/12 15:08:58;;;;;;;;;;;;;;;8.11;70.79;100838.44;1694768;84;20186;-70
2021/11/12 15:11:27;;;;;;;;;;;;;;;8.09;70.86;100841.00;1695006;85;20213;-69
2021/11/12 15:14:03;;;;;;;;;;;;;;;8.09;70.92;100838.27;1694772;83;20182;-70
2021/11/12 15:16:26;;;;;;;;;;;;;;;8.11;70.89;100843.90;1668471;85;20205;-70
2021/11/12 15:18:59;;;;;;;;;;;;;;;8.11;70.91;100843.90;1567046;91;20176;-68
2021/11/12 15:21:40;;;;;;;;;;;;;;;8.12;70.89;100848.84;1566873;92;20306;-69
2021/11/12 15:24:24;;;;;;;;;;;;;;;8.11;70.92;100852.59;1566689;92;20168;-70
2021/11/12 15:27:05;;;;;;;;;;;;;;;8.08;70.86;100855.67;1566400;92;20160;-70
2021/11/12 15:32:10;;;;;;;;;;;;;;;8.00;70.96;100861.13;1566607;92;20645;-72
2021/11/12 15:34:49;;;;;;;;;;;;;;;7.96;71.06;100861.98;1566572;92;20544;-73
2021/11/12 15:37:18;;;;;;;;;;;;;;;7.95;71.08;100870.67;1565990;92;20620;-72
2021/11/12 15:44:52;;;;;;;;;;;;;;;7.92;71.01;100873.73;1645506;87;20320;-69
2021/11/12 15:49:54;;;;;;;;;;;;;;;7.88;71.04;100876.47;1645607;87;20513;-72
2021/11/12 16:00:30;;;;;;;;;;;;;;;7.91;71.15;100884.31;1651959;87;20155;-74
2021/11/12 16:03:22;;;;;;;;;;;;;;;7.89;70.97;100880.90;1651405;86;20204;-73
2021/11/12 16:08:38;;;;;;;;;;;;;;;7.85;70.94;100893.17;1660425;86;20321;-71
2021/11/12 16:13:59;;;;;;;;;;;;;;;7.80;71.01;100896.03;1663915;84;20612;-72
2021/11/12 16:19:09;;;;;;;;;;;;;;;7.85;71.09;100899.99;1691100;84;20259;-71
2021/11/12 16:26:54;;;;;;;;;;;;;;;7.82;70.73;100902.20;1691758;85;20179;-70
2021/11/12 16:29:36;;;;;;;;;;;;;;;7.78;70.66;100907.11;1691642;85;20207;-69
2021/11/12 16:32:06;;;;;;;;;;;;;;;7.77;70.58;100908.13;1692045;85;20194;-71
2021/11/12 16:34:46;;;;;;;;;;;;;;;7.76;70.53;100914.61;1691778;85;20246;-69
2021/11/12 16:37:06;;;;;;;;;;;;;;;7.84;71.31;100915.16;1688770;84;20277;-71
2021/11/12 16:39:39;;;;;;;;;;;;;;;7.91;70.70;100914.84;1691727;85;20302;-70
2021/11/12 16:42:36;;;;;;;;;;;;;;;7.90;70.40;100914.49;1688999;85;20229;-70
2021/11/12 16:47:37;;;;;;;;;;;;;;;7.92;70.45;100924.73;1663627;86;20650;-72
2021/11/12 16:58:06;;;;;;;;;;;;;;;7.90;69.95;100929.50;1658714;86;20521;-71
2021/11/12 17:06:22;;;;;;;;;;;;;;;7.88;69.89;100929.67;1658986;86;20208;-72
2021/11/12 17:14:25;;;;;;;;;;;;;;;7.87;70.18;100937.51;1658718;86;20195;-72
2021/11/12 17:17:06;;;;;;;;;;;;;;;7.86;70.24;100939.04;1658962;86;20252;-71
2021/11/12 17:47:10;;;;;;;;;;;;;;;7.69;70.90;100954.48;1642693;87;20193;-72
2021/11/12 18:03:54;;;;;;;;;;;;;;;7.62;70.21;100948.83;1700261;84;20158;-63
2021/11/12 18:06:22;;;;;;;;;;;;;;;7.60;69.72;100967.23;1697167;84;20571;-64
2021/11/12 18:09:09;;;;;;;;;;;;;;;7.62;69.55;100959.73;1700337;84;20197;-63
2021/11/12 18:11:53;;;;;;;;;;;;;;;7.65;69.27;100977.64;1697829;84;20557;-63
2021/11/12 18:14:07;;;;;;;;;;;;;;;7.61;68.70;100965.36;1697528;84;20186;-65
2021/11/12 21:45:18;;;;;;;;;;;;;;;5.74;69.90;101110.66;1690193;85;20471;-65
2021/11/12 21:47:40;;;;;;;;;;;;;;;5.71;70.00;101110.95;1688645;85;20238;-64
2021/11/12 21:50:09;;;;;;;;;;;;;;;5.69;70.08;101115.19;1690193;85;20205;-63
2021/11/12 21:52:40;;;;;;;;;;;;;;;5.68;70.07;101116.69;1690199;85;20210;-64
2021/11/12 21:55:08;;;;;;;;;;;;;;;5.65;70.15;101119.70;1690173;85;20258;-64
2021/11/12 21:57:38;;;;;;;;;;;;;;;5.64;70.17;101126.15;1690154;85;20162;-64
2021/11/12 22:00:09;;;;;;;;;;;;;;;5.58;70.28;101123.52;1690145;85;20246;-63
2021/11/12 22:02:41;;;;;;;;;;;;;;;5.56;70.40;101124.67;1690081;85;20158;-63
2021/11/12 22:05:09;;;;;;;;;;;;;;;5.53;70.54;101122.25;1690055;85;20218;-62
2021/11/12 22:07:37;;;;;;;;;;;;;;;5.52;70.63;101120.54;1690166;85;20159;-63
2021/11/12 22:10:07;;;;;;;;;;;;;;;5.55;70.56;101125.17;1690187;85;20158;-64
2021/11/12 22:12:35;;;;;;;;;;;;;;;5.53;70.57;101121.75;1690084;85;20288;-63
2021/11/12 22:15:07;;;;;;;;;;;;;;;5.49;70.64;101125.77;1699453;84;20237;-63
2021/11/12 22:17:36;;;;;;;;;;;;;;;5.43;70.75;101117.34;1706436;84;20578;-62
2021/11/12 22:20:10;;;;;;;;;;;;;;;5.37;70.96;101122.36;1706501;84;20569;-63
2021/11/12 22:22:39;;;;;;;;;;;;;;;5.35;71.12;101123.52;1706467;84;20617;-62
2021/11/12 22:25:08;;;;;;;;;;;;;;;5.30;71.14;101126.67;1706408;84;20221;-63
2021/11/12 22:27:37;;;;;;;;;;;;;;;5.26;71.24;101118.45;1706313;84;20228;-64